Time;durP1;ratioP1;P1;durP2;ratioP2;P2;SDS_P1;SDS_P2;PMS_P1;PMS_P2;Temp;Humidity;BMP_temperature;BMP_pressure;BME280_temperature;BME280_humidity;BME280_pressure;Samples;Min_cycle;Max_cycle;Signal;HPM_P1;HPM_P2
2024/02/14 00:02:11;;;;;;;6.50;5.53;;;3.70;99.90;;;;;;5090327;28;20440;-64
2024/02/14 00:04:38;;;;;;;8.47;6.33;;;3.70;99.90;;;;;;5079810;28;20690;-64
2024/02/14 00:07:04;;;;;;;8.53;5.90;;;3.80;99.90;;;;;;5086269;28;20515;-62
2024/02/14 00:09:29;;;;;;;12.80;8.20;;;3.80;99.90;;;;;;5077971;28;20534;-65
2024/02/14 00:11:55;;;;;;;10.80;6.50;;;3.80;99.90;;;;;;5089656;28;20209;-65
2024/02/14 00:14:20;;;;;;;7.33;5.30;;;3.80;99.90;;;;;;5090295;28;20546;-63
2024/02/14 00:16:46;;;;;;;8.67;6.13;;;3.80;99.90;;;;;;5090032;28;20196;-64
2024/02/14 00:19:12;;;;;;;10.40;7.50;;;3.70;99.90;;;;;;5085692;28;20174;-64
2024/02/14 00:21:38;;;;;;;8.77;6.10;;;3.80;99.90;;;;;;5085223;28;20658;-63
2024/02/14 00:24:05;;;;;;;5.57;4.80;;;3.80;99.90;;;;;;5086376;28;20691;-64
2024/02/14 00:26:31;;;;;;;8.33;6.23;;;3.70;99.90;;;;;;5086089;28;20445;-64
2024/02/14 00:28:57;;;;;;;7.80;6.20;;;3.60;99.90;;;;;;5089923;28;20516;-64
2024/02/14 00:31:22;;;;;;;8.07;6.20;;;3.60;99.90;;;;;;5089964;28;20474;-64
2024/02/14 00:33:48;;;;;;;10.40;6.47;;;3.60;99.90;;;;;;5081020;28;20174;-64
2024/02/14 00:36:13;;;;;;;8.47;6.20;;;3.60;99.90;;;;;;5089812;28;20231;-63
2024/02/14 00:38:39;;;;;;;6.83;6.07;;;3.60;99.90;;;;;;5089852;28;20182;-65
2024/02/14 00:41:05;;;;;;;7.40;6.03;;;3.70;99.90;;;;;;5085183;28;20251;-64
2024/02/14 00:43:30;;;;;;;8.30;5.53;;;3.60;99.90;;;;;;5086044;28;20176;-64
2024/02/14 00:45:56;;;;;;;7.00;5.33;;;3.60;99.90;;;;;;5089047;28;20182;-63
2024/02/14 00:48:22;;;;;;;8.10;5.40;;;3.60;99.90;;;;;;5082061;28;20197;-63
2024/02/14 00:50:48;;;;;;;10.17;7.20;;;3.60;99.90;;;;;;5089338;28;20459;-64
2024/02/14 00:53:14;;;;;;;8.03;5.57;;;3.60;99.90;;;;;;5088456;28;20451;-64
2024/02/14 00:55:40;;;;;;;11.60;5.63;;;3.70;99.90;;;;;;5088858;28;20423;-64
2024/02/14 00:58:05;;;;;;;6.73;5.80;;;3.70;99.90;;;;;;5086167;28;20178;-64
2024/02/14 01:00:34;;;;;;;11.37;6.97;;;3.70;99.90;;;;;;5085016;28;20548;-64
2024/02/14 01:02:59;;;;;;;7.57;6.67;;;3.70;99.90;;;;;;5086697;28;20169;-64
2024/02/14 01:05:25;;;;;;;10.20;6.40;;;3.70;99.90;;;;;;5089433;28;20906;-64
2024/02/14 01:07:53;;;;;;;9.80;6.33;;;3.70;99.90;;;;;;5088318;28;20169;-64
2024/02/14 01:10:19;;;;;;;9.57;6.60;;;3.70;99.90;;;;;;5088965;28;20308;-64
2024/02/14 01:12:45;;;;;;;10.00;5.70;;;3.70;99.90;;;;;;5089262;28;20909;-64
2024/02/14 01:15:10;;;;;;;7.23;6.50;;;3.70;99.90;;;;;;5084279;28;20275;-64
2024/02/14 01:17:38;;;;;;;8.03;6.57;;;3.70;99.90;;;;;;5083380;28;20213;-64
2024/02/14 01:20:04;;;;;;;10.93;6.97;;;3.70;99.90;;;;;;5092635;28;20181;-63
2024/02/14 01:22:30;;;;;;;8.73;6.70;;;3.70;99.90;;;;;;5089909;28;20445;-64
2024/02/14 01:24:55;;;;;;;9.00;6.73;;;3.70;99.90;;;;;;5087576;28;20412;-64
2024/02/14 01:27:22;;;;;;;7.43;5.63;;;3.60;99.90;;;;;;5078943;28;20182;-63
2024/02/14 01:29:48;;;;;;;9.00;6.83;;;3.60;99.90;;;;;;5090148;28;20205;-64
2024/02/14 01:32:14;;;;;;;7.67;5.57;;;3.60;99.90;;;;;;5091422;28;20504;-63
2024/02/14 01:34:39;;;;;;;8.10;6.43;;;3.60;99.90;;;;;;5091138;28;20892;-62
2024/02/14 01:37:06;;;;;;;7.57;6.30;;;3.70;99.90;;;;;;5093568;28;20252;-63
2024/02/14 01:39:31;;;;;;;10.63;7.33;;;3.60;99.90;;;;;;5093324;28;20170;-63
2024/02/14 01:41:57;;;;;;;9.30;6.20;;;3.60;99.90;;;;;;5088115;28;20538;-62
2024/02/14 01:44:22;;;;;;;8.23;6.17;;;3.70;99.90;;;;;;5093126;28;20174;-63
2024/02/14 01:46:48;;;;;;;10.27;5.43;;;3.70;99.90;;;;;;5093224;28;20201;-64
2024/02/14 01:49:16;;;;;;;8.63;6.60;;;3.70;99.90;;;;;;5093255;28;20734;-64
2024/02/14 01:51:44;;;;;;;9.17;6.03;;;3.60;99.90;;;;;;5093341;28;20186;-64
2024/02/14 01:54:11;;;;;;;7.57;6.20;;;3.60;99.90;;;;;;5093375;28;20431;-64
2024/02/14 01:56:38;;;;;;;7.93;6.27;;;3.60;99.90;;;;;;5093402;28;20795;-64
2024/02/14 01:59:05;;;;;;;6.70;6.00;;;3.70;99.90;;;;;;5093111;28;20514;-64
2024/02/14 02:01:31;;;;;;;9.73;7.10;;;3.70;99.90;;;;;;5082304;28;20545;-64
2024/02/14 02:03:58;;;;;;;7.10;6.40;;;3.70;99.90;;;;;;5091452;28;20435;-62
2024/02/14 02:06:24;;;;;;;6.53;5.90;;;3.70;99.90;;;;;;5092715;28;20410;-63
2024/02/14 02:08:50;;;;;;;5.83;5.23;;;3.70;99.90;;;;;;5092938;28;20542;-63
2024/02/14 02:11:15;;;;;;;7.90;6.63;;;3.70;99.90;;;;;;5092668;28;20222;-64
2024/02/14 02:13:41;;;;;;;8.60;6.27;;;3.70;99.90;;;;;;5092775;28;20605;-61
2024/02/14 02:16:07;;;;;;;7.57;6.03;;;3.70;99.90;;;;;;5092782;28;20180;-65
2024/02/14 02:18:33;;;;;;;10.07;7.40;;;3.70;99.90;;;;;;5085432;28;20820;-65
2024/02/14 02:20:59;;;;;;;7.10;6.07;;;3.70;99.90;;;;;;5097271;28;20439;-65
2024/02/14 02:23:25;;;;;;;8.90;6.30;;;3.80;99.90;;;;;;5084231;28;20230;-65
2024/02/14 02:25:50;;;;;;;6.17;5.57;;;3.70;99.90;;;;;;5092576;28;20600;-64
2024/02/14 02:28:16;;;;;;;6.47;5.03;;;3.70;99.90;;;;;;5087199;28;20186;-63
2024/02/14 02:30:42;;;;;;;7.43;5.50;;;3.60;99.90;;;;;;5089264;28;20251;-63
2024/02/14 02:33:08;;;;;;;9.33;6.00;;;3.60;99.90;;;;;;5092486;28;20715;-62
2024/02/14 02:35:34;;;;;;;7.80;5.30;;;3.60;99.90;;;;;;5092414;28;20412;-62
2024/02/14 02:38:00;;;;;;;6.70;5.47;;;3.60;99.90;;;;;;5092228;28;20553;-62
2024/02/14 02:40:27;;;;;;;6.63;5.57;;;3.60;99.90;;;;;;5083055;28;20450;-62
2024/02/14 02:42:53;;;;;;;8.43;5.47;;;3.60;99.90;;;;;;5087425;28;20434;-61
2024/02/14 02:45:19;;;;;;;5.67;5.10;;;3.50;99.90;;;;;;5084428;28;20432;-61
2024/02/14 02:47:45;;;;;;;7.77;6.13;;;3.60;99.90;;;;;;5088817;28;20979;-60
2024/02/14 02:50:10;;;;;;;6.63;5.87;;;3.50;99.90;;;;;;5092049;28;20452;-59
2024/02/14 02:52:36;;;;;;;7.13;6.10;;;3.50;99.90;;;;;;5092007;28;20643;-60
2024/02/14 02:55:01;;;;;;;5.57;5.07;;;3.50;99.90;;;;;;5091436;28;20178;-60
2024/02/14 02:57:32;;;;;;;10.40;5.80;;;3.50;99.90;;;;;;5090596;28;20166;-60
2024/02/14 02:59:57;;;;;;;6.23;5.10;;;3.40;99.90;;;;;;5090345;28;20188;-56
2024/02/14 03:02:23;;;;;;;6.97;5.60;;;3.40;99.90;;;;;;5092327;28;20435;-62
2024/02/14 03:04:50;;;;;;;7.30;5.10;;;3.40;99.90;;;;;;5088204;28;20202;-61
2024/02/14 03:07:16;;;;;;;8.50;5.97;;;3.40;99.90;;;;;;5091931;28;20261;-61
2024/02/14 03:09:41;;;;;;;8.83;5.37;;;3.40;99.90;;;;;;5091524;28;20474;-63
2024/02/14 03:12:08;;;;;;;6.90;5.70;;;3.50;99.90;;;;;;5091370;28;20259;-60
2024/02/14 03:14:35;;;;;;;12.23;5.50;;;3.50;99.90;;;;;;5091700;28;20181;-59
2024/02/14 03:17:02;;;;;;;5.23;4.73;;;3.50;99.90;;;;;;5091412;28;20453;-62
2024/02/14 03:19:28;;;;;;;5.10;4.70;;;3.50;99.90;;;;;;5086310;28;20870;-58
2024/02/14 03:21:55;;;;;;;7.47;5.10;;;3.50;99.90;;;;;;5088836;28;20475;-61
2024/02/14 03:24:21;;;;;;;8.30;5.90;;;3.50;99.90;;;;;;5090002;28;20419;-62
2024/02/14 03:26:47;;;;;;;7.30;6.60;;;3.50;99.90;;;;;;5082677;28;20512;-63
2024/02/14 03:29:12;;;;;;;7.87;6.03;;;3.50;99.90;;;;;;5091280;28;20531;-59
2024/02/14 03:31:39;;;;;;;6.00;5.10;;;3.60;99.90;;;;;;5091139;28;20192;-63
2024/02/14 03:34:05;;;;;;;8.53;6.43;;;3.60;99.90;;;;;;5091112;28;20513;-59
2024/02/14 03:36:32;;;;;;;7.80;6.57;;;3.60;99.90;;;;;;5091186;28;20443;-62
2024/02/14 03:38:58;;;;;;;6.10;5.50;;;3.60;99.90;;;;;;5085411;28;20440;-61
2024/02/14 03:41:24;;;;;;;7.00;5.10;;;3.60;99.90;;;;;;5085653;28;20428;-61
2024/02/14 03:43:52;;;;;;;7.03;5.70;;;3.60;99.90;;;;;;5087710;28;20439;-61
2024/02/14 03:46:21;;;;;;;7.30;5.40;;;3.70;99.90;;;;;;5091139;28;20170;-60
2024/02/14 03:48:47;;;;;;;8.03;6.47;;;3.70;99.90;;;;;;5090723;28;20444;-64
2024/02/14 03:51:13;;;;;;;6.23;5.60;;;3.70;99.90;;;;;;5090559;28;20928;-59
2024/02/14 03:53:39;;;;;;;7.87;5.87;;;3.70;99.90;;;;;;5089852;28;20415;-59
2024/02/14 03:56:07;;;;;;;7.00;6.30;;;3.70;99.90;;;;;;5083303;28;20546;-60
2024/02/14 03:58:37;;;;;;;6.00;5.13;;;3.80;99.90;;;;;;5090783;28;20191;-59
2024/02/14 04:01:03;;;;;;;7.17;6.33;;;3.80;99.90;;;;;;5086255;28;20439;-62
2024/02/14 04:03:29;;;;;;;6.10;5.60;;;3.80;99.90;;;;;;5090702;28;20431;-62
2024/02/14 04:05:54;;;;;;;8.97;6.00;;;3.80;99.90;;;;;;5082316;28;20415;-63
2024/02/14 04:08:20;;;;;;;8.60;6.00;;;3.70;99.90;;;;;;5090466;28;20450;-63
2024/02/14 04:10:46;;;;;;;8.43;6.03;;;3.80;99.90;;;;;;5090376;28;20235;-61
2024/02/14 04:13:11;;;;;;;6.43;5.50;;;3.80;99.90;;;;;;5090556;28;20658;-62
2024/02/14 04:15:37;;;;;;;6.70;5.53;;;3.80;99.90;;;;;;5088736;28;20170;-58
2024/02/14 04:18:06;;;;;;;7.63;5.77;;;3.80;99.90;;;;;;5072462;28;20177;-62
2024/02/14 04:20:31;;;;;;;6.83;5.73;;;3.80;99.90;;;;;;5085574;28;20215;-62
2024/02/14 04:22:58;;;;;;;6.30;5.40;;;3.80;99.90;;;;;;5090252;28;20408;-60
2024/02/14 04:25:24;;;;;;;7.40;6.47;;;3.80;99.90;;;;;;5090388;28;20200;-62
2024/02/14 04:27:49;;;;;;;5.97;5.20;;;3.90;99.90;;;;;;5090151;28;20553;-59
2024/02/14 04:30:15;;;;;;;8.40;6.43;;;3.90;99.90;;;;;;5081930;28;20671;-62
2024/02/14 04:32:41;;;;;;;7.67;6.83;;;3.90;99.90;;;;;;5090293;28;20201;-60
2024/02/14 04:35:08;;;;;;;7.73;6.10;;;3.90;99.90;;;;;;5089900;28;20262;-61
2024/02/14 04:37:34;;;;;;;10.47;6.47;;;3.90;99.90;;;;;;5083780;28;21118;-61
2024/02/14 04:39:59;;;;;;;6.30;5.70;;;4.00;99.90;;;;;;5090108;28;20438;-61
2024/02/14 04:42:25;;;;;;;11.83;6.50;;;4.00;99.90;;;;;;5081782;28;20200;-61
2024/02/14 04:44:50;;;;;;;7.10;6.40;;;3.90;99.90;;;;;;5090219;28;20178;-60
2024/02/14 04:47:16;;;;;;;9.07;7.10;;;3.90;99.90;;;;;;5090175;28;20479;-62
2024/02/14 04:49:42;;;;;;;7.37;6.00;;;3.90;99.90;;;;;;5090007;28;20194;-60
2024/02/14 04:52:08;;;;;;;8.53;5.67;;;3.90;99.90;;;;;;5089961;28;20194;-61
2024/02/14 04:54:34;;;;;;;7.97;6.17;;;4.00;99.90;;;;;;5083421;28;20185;-59
2024/02/14 04:56:59;;;;;;;8.50;6.80;;;4.00;99.90;;;;;;5081950;28;20955;-62
2024/02/14 04:59:25;;;;;;;8.17;5.50;;;4.00;99.90;;;;;;5090273;28;20219;-62
2024/02/14 05:01:53;;;;;;;7.20;5.60;;;4.00;99.90;;;;;;5090112;28;20197;-61
2024/02/14 05:04:20;;;;;;;8.07;6.57;;;4.00;99.90;;;;;;5091610;28;20169;-61
2024/02/14 05:06:46;;;;;;;9.13;6.47;;;4.00;99.90;;;;;;5093876;28;20407;-59
2024/02/14 05:09:11;;;;;;;9.93;6.13;;;4.10;99.90;;;;;;5093630;28;21009;-59
2024/02/14 05:11:37;;;;;;;12.70;5.97;;;4.10;99.90;;;;;;5088030;28;20209;-62
2024/02/14 05:14:03;;;;;;;7.00;5.20;;;4.10;99.90;;;;;;5094103;28;20671;-63
2024/02/14 05:16:29;;;;;;;10.90;5.90;;;4.20;99.90;;;;;;5094084;28;20170;-63
2024/02/14 05:18:55;;;;;;;8.30;6.17;;;4.20;99.90;;;;;;5085430;28;20490;-64
2024/02/14 05:21:21;;;;;;;9.47;6.40;;;4.20;99.90;;;;;;5084866;28;20285;-63
2024/02/14 05:23:47;;;;;;;13.27;7.07;;;4.20;99.90;;;;;;5089788;28;20502;-63
2024/02/14 05:26:13;;;;;;;7.87;6.83;;;4.20;99.90;;;;;;5093718;28;20530;-62
2024/02/14 05:28:38;;;;;;;8.47;5.77;;;4.20;99.90;;;;;;5093740;28;20447;-64
2024/02/14 05:31:05;;;;;;;7.70;5.90;;;4.20;99.90;;;;;;5093521;28;20189;-64
2024/02/14 05:33:31;;;;;;;10.27;5.93;;;4.30;99.90;;;;;;5093509;28;20170;-64
2024/02/14 05:35:56;;;;;;;8.90;6.00;;;4.30;99.90;;;;;;5093556;28;20416;-64
2024/02/14 05:38:23;;;;;;;7.37;6.00;;;4.30;99.90;;;;;;5085344;28;20180;-64
2024/02/14 05:40:49;;;;;;;9.23;7.30;;;4.30;99.90;;;;;;5085603;28;20285;-64
2024/02/14 05:43:15;;;;;;;9.40;6.30;;;4.40;99.90;;;;;;5092850;28;20499;-64
2024/02/14 05:45:41;;;;;;;6.03;5.10;;;4.40;99.90;;;;;;5093408;28;20458;-64
2024/02/14 05:48:07;;;;;;;10.50;7.10;;;4.30;99.90;;;;;;5074854;28;20426;-64
2024/02/14 05:50:33;;;;;;;8.70;6.10;;;4.30;99.90;;;;;;5093201;28;20887;-65
2024/02/14 05:52:59;;;;;;;12.13;6.80;;;4.30;99.90;;;;;;5089829;28;21015;-64
2024/02/14 05:55:25;;;;;;;8.60;5.73;;;4.40;99.90;;;;;;5088712;28;20424;-65
2024/02/14 05:57:54;;;;;;;8.63;6.30;;;4.40;99.90;;;;;;5089669;28;20855;-65
2024/02/14 06:00:20;;;;;;;10.20;6.80;;;4.50;99.90;;;;;;5093225;28;20780;-64
2024/02/14 06:02:47;;;;;;;7.50;6.70;;;4.40;99.90;;;;;;5093119;28;20495;-64
2024/02/14 06:05:13;;;;;;;7.27;6.30;;;4.40;99.90;;;;;;5092856;28;20425;-64
2024/02/14 06:07:40;;;;;;;7.27;6.03;;;4.40;99.90;;;;;;5093108;28;20415;-64
2024/02/14 06:10:07;;;;;;;10.70;6.97;;;4.40;99.90;;;;;;5087089;28;20452;-65
2024/02/14 06:12:33;;;;;;;7.83;5.90;;;4.40;99.90;;;;;;5086440;28;20423;-64
2024/02/14 06:14:59;;;;;;;11.30;7.20;;;4.40;99.90;;;;;;5092162;28;20770;-64
2024/02/14 06:17:26;;;;;;;7.70;5.80;;;4.40;99.90;;;;;;5090273;28;20424;-64
2024/02/14 06:19:52;;;;;;;7.10;5.73;;;4.40;99.90;;;;;;5089582;28;20387;-63
2024/02/14 06:22:18;;;;;;;10.43;6.97;;;4.40;99.90;;;;;;5089329;28;20459;-63
2024/02/14 06:24:43;;;;;;;10.83;6.00;;;4.40;99.90;;;;;;5092763;28;20759;-65
2024/02/14 06:27:09;;;;;;;8.47;6.83;;;4.40;99.90;;;;;;5092403;28;20260;-63
2024/02/14 06:29:35;;;;;;;8.23;6.63;;;4.40;99.90;;;;;;5092711;28;20286;-63
2024/02/14 06:32:01;;;;;;;6.30;5.70;;;4.50;99.90;;;;;;5092347;28;20439;-63
2024/02/14 06:34:28;;;;;;;11.27;6.03;;;4.40;99.90;;;;;;5092517;28;20170;-61
2024/02/14 06:36:54;;;;;;;7.60;5.97;;;4.50;99.90;;;;;;5092671;28;20189;-63
2024/02/14 06:39:20;;;;;;;6.47;5.00;;;4.50;99.90;;;;;;5082603;28;20423;-63
2024/02/14 06:41:47;;;;;;;7.60;6.17;;;4.50;99.90;;;;;;5092805;28;20543;-64
2024/02/14 06:44:12;;;;;;;8.10;5.83;;;4.50;99.90;;;;;;5092500;28;20412;-63
2024/02/14 06:46:38;;;;;;;7.60;5.50;;;4.50;99.90;;;;;;5092587;28;21197;-63
2024/02/14 06:49:04;;;;;;;6.83;5.40;;;4.60;99.90;;;;;;5092204;28;20451;-63
2024/02/14 06:51:30;;;;;;;8.87;6.10;;;4.60;99.90;;;;;;5090942;28;20227;-63
2024/02/14 06:53:56;;;;;;;8.20;6.23;;;4.60;99.90;;;;;;5092193;28;20806;-63
2024/02/14 06:56:21;;;;;;;7.93;5.77;;;4.70;99.90;;;;;;5089214;28;20209;-63
2024/02/14 06:58:52;;;;;;;8.63;5.57;;;4.70;99.90;;;;;;5092227;28;20196;-62
2024/02/14 07:01:21;;;;;;;8.57;5.23;;;4.70;99.90;;;;;;5091860;28;20202;-63
2024/02/14 07:03:47;;;;;;;19.57;6.73;;;4.80;99.90;;;;;;5092000;28;20414;-63
2024/02/14 07:06:13;;;;;;;6.97;5.70;;;4.80;99.90;;;;;;5092186;28;20412;-63
2024/02/14 07:08:41;;;;;;;7.03;5.60;;;4.90;99.90;;;;;;5091959;28;20787;-62
2024/02/14 07:11:06;;;;;;;8.07;5.20;;;4.80;99.90;;;;;;5091612;28;20450;-62
2024/02/14 07:13:32;;;;;;;9.00;5.00;;;4.90;99.90;;;;;;5087803;28;20511;-64
2024/02/14 07:15:58;;;;;;;11.70;6.73;;;5.00;99.90;;;;;;5085579;28;20249;-61
2024/02/14 07:18:23;;;;;;;12.47;5.50;;;5.00;99.90;;;;;;5082828;28;20163;-62
2024/02/14 07:20:49;;;;;;;7.00;5.43;;;5.10;99.90;;;;;;5086109;28;20632;-62
2024/02/14 07:23:14;;;;;;;6.83;5.10;;;5.10;99.90;;;;;;5083099;28;20182;-64
2024/02/14 07:25:40;;;;;;;7.60;5.27;;;5.10;99.90;;;;;;5091720;28;20644;-63
2024/02/14 07:28:06;;;;;;;6.20;5.60;;;5.20;99.90;;;;;;5091459;28;20545;-61
2024/02/14 07:30:31;;;;;;;6.47;4.67;;;5.30;99.90;;;;;;5091378;28;20209;-63
2024/02/14 07:32:57;;;;;;;11.97;5.70;;;5.30;99.90;;;;;;5091442;28;20180;-64
2024/02/14 07:35:23;;;;;;;4.73;4.33;;;5.40;99.90;;;;;;5083067;28;20201;-63
2024/02/14 07:37:48;;;;;;;7.00;4.93;;;5.40;99.90;;;;;;5091425;28;20174;-63
2024/02/14 07:40:14;;;;;;;5.90;4.37;;;5.50;99.90;;;;;;5082799;28;20181;-63
2024/02/14 07:42:40;;;;;;;6.33;4.80;;;5.50;99.90;;;;;;5091976;28;20173;-64
2024/02/14 07:45:08;;;;;;;5.77;5.27;;;5.40;99.90;;;;;;5092565;28;20647;-64
2024/02/14 07:47:33;;;;;;;9.27;6.27;;;5.50;99.90;;;;;;5091263;28;20208;-64
2024/02/14 07:49:59;;;;;;;7.00;4.70;;;5.40;99.90;;;;;;5092054;28;20486;-64
2024/02/14 07:52:25;;;;;;;4.50;4.10;;;5.40;99.90;;;;;;5098345;28;20185;-63
2024/02/14 07:54:54;;;;;;;5.73;4.43;;;5.40;99.90;;;;;;5090645;28;20250;-64
2024/02/14 07:57:22;;;;;;;9.37;5.80;;;5.50;99.90;;;;;;5094762;28;20865;-63
2024/02/14 07:59:47;;;;;;;6.23;4.27;;;5.50;99.90;;;;;;5084746;28;20447;-63
2024/02/14 08:02:13;;;;;;;15.33;4.70;;;5.60;99.90;;;;;;5090899;28;20980;-63
2024/02/14 08:04:39;;;;;;;11.27;5.30;;;5.60;99.90;;;;;;5082850;28;20218;-63
2024/02/14 08:07:04;;;;;;;6.50;4.70;;;5.60;99.90;;;;;;5098241;28;20427;-62
2024/02/14 08:09:30;;;;;;;6.83;4.33;;;5.70;99.90;;;;;;5091121;28;20670;-62
2024/02/14 08:11:55;;;;;;;6.30;5.10;;;5.70;99.90;;;;;;5086181;28;20304;-65
2024/02/14 08:14:21;;;;;;;7.83;5.07;;;5.80;99.90;;;;;;5090963;28;20194;-64
2024/02/14 08:16:47;;;;;;;8.50;4.87;;;5.90;99.90;;;;;;5090839;28;20184;-64
2024/02/14 08:19:13;;;;;;;9.33;5.03;;;5.90;99.90;;;;;;5090752;28;20644;-63
2024/02/14 08:21:38;;;;;;;5.50;5.00;;;5.90;99.90;;;;;;5090739;28;20606;-63
2024/02/14 08:24:05;;;;;;;6.43;4.30;;;6.00;99.90;;;;;;5084177;28;20211;-64
2024/02/14 08:26:31;;;;;;;5.90;5.33;;;6.00;99.90;;;;;;5078816;28;20202;-64
2024/02/14 08:28:58;;;;;;;4.97;4.47;;;5.90;99.90;;;;;;5078993;28;20456;-62
2024/02/14 08:31:24;;;;;;;7.80;4.80;;;6.00;99.90;;;;;;5090174;28;20777;-63
2024/02/14 08:33:49;;;;;;;6.13;5.23;;;6.10;99.90;;;;;;5090567;28;20507;-63
2024/02/14 08:36:16;;;;;;;6.50;5.07;;;6.10;99.90;;;;;;5090360;28;20984;-62
2024/02/14 08:38:42;;;;;;;6.57;5.67;;;6.20;99.90;;;;;;5084164;28;20178;-63
2024/02/14 08:41:08;;;;;;;6.97;4.73;;;6.20;99.90;;;;;;5091785;28;20945;-63
2024/02/14 08:43:33;;;;;;;6.80;5.53;;;6.20;99.90;;;;;;5094842;28;20171;-63
2024/02/14 08:45:59;;;;;;;8.50;5.10;;;6.30;99.90;;;;;;5094744;28;20174;-63
2024/02/14 08:48:27;;;;;;;4.73;3.90;;;6.30;99.90;;;;;;5094866;28;20193;-62
2024/02/14 08:50:52;;;;;;;6.80;4.50;;;6.30;99.90;;;;;;5086385;28;20205;-63
2024/02/14 08:53:18;;;;;;;6.30;4.00;;;6.20;99.90;;;;;;5081574;28;20409;-65
2024/02/14 08:55:44;;;;;;;7.67;4.63;;;6.40;99.90;;;;;;5081665;28;20783;-65
2024/02/14 08:58:10;;;;;;;4.73;3.97;;;6.40;99.90;;;;;;5085794;28;20182;-65
2024/02/14 09:00:39;;;;;;;7.83;4.50;;;6.40;99.90;;;;;;5078490;28;20193;-64
2024/02/14 09:03:05;;;;;;;4.30;3.80;;;6.50;99.90;;;;;;5094425;28;20233;-64
2024/02/14 09:05:31;;;;;;;5.97;5.40;;;6.50;99.90;;;;;;5094249;28;20496;-63
2024/02/14 09:07:57;;;;;;;7.43;4.70;;;6.60;99.90;;;;;;5094770;28;20567;-64
2024/02/14 09:10:23;;;;;;;4.80;4.40;;;6.70;99.90;;;;;;5094543;28;20196;-64
2024/02/14 09:12:48;;;;;;;6.27;4.03;;;6.80;99.90;;;;;;5086608;28;20441;-64
2024/02/14 09:15:14;;;;;;;6.30;4.23;;;6.80;99.90;;;;;;5084483;28;20172;-64
2024/02/14 09:17:41;;;;;;;4.77;4.30;;;6.80;99.90;;;;;;5059995;28;20263;-64
2024/02/14 09:20:09;;;;;;;6.07;4.57;;;6.80;99.90;;;;;;5094182;28;20517;-64
2024/02/14 09:22:36;;;;;;;5.57;4.50;;;6.80;99.90;;;;;;5094501;28;20416;-64
2024/02/14 09:25:05;;;;;;;6.73;3.10;;;6.90;99.90;;;;;;5089641;28;20460;-64
2024/02/14 09:27:31;;;;;;;4.27;3.60;;;6.80;99.90;;;;;;5090192;28;20906;-64
2024/02/14 09:29:57;;;;;;;8.23;4.50;;;6.80;99.90;;;;;;5089270;28;20475;-64
2024/02/14 09:32:22;;;;;;;4.40;3.60;;;6.80;99.90;;;;;;5093612;28;20441;-63
2024/02/14 09:34:48;;;;;;;6.80;3.10;;;6.80;99.90;;;;;;5093922;28;20545;-62
2024/02/14 09:37:13;;;;;;;9.20;3.27;;;6.80;99.90;;;;;;5093844;28;20251;-65
2024/02/14 09:39:39;;;;;;;6.10;4.17;;;6.80;99.90;;;;;;5093961;28;20203;-65
2024/02/14 09:42:15;;;;;;;4.67;3.80;;;6.80;99.90;;;;;;5083999;28;20545;-64
2024/02/14 09:44:41;;;;;;;6.30;3.07;;;6.80;99.90;;;;;;5086702;28;20667;-64
2024/02/14 09:47:09;;;;;;;3.13;2.43;;;6.80;99.90;;;;;;5093839;28;20435;-64
2024/02/14 09:49:39;;;;;;;3.00;2.70;;;6.90;99.90;;;;;;5093219;28;20730;-65
2024/02/14 09:52:06;;;;;;;7.40;3.00;;;6.80;99.90;;;;;;5087179;28;20785;-64
2024/02/14 09:54:35;;;;;;;3.70;3.20;;;6.70;99.90;;;;;;5078042;28;20412;-64
2024/02/14 09:57:02;;;;;;;5.17;3.40;;;6.80;99.90;;;;;;5090046;28;20427;-64
2024/02/14 09:59:28;;;;;;;3.90;2.60;;;6.80;99.90;;;;;;5093722;28;20409;-65
2024/02/14 10:01:54;;;;;;;6.20;3.47;;;6.70;99.90;;;;;;5093200;28;20439;-65
2024/02/14 10:08:31;;;;;;;10.20;3.90;;;6.80;99.90;;;;;;5081351;28;20252;-64
2024/02/14 10:11:00;;;;;;;3.20;2.77;;;6.80;99.90;;;;;;5088421;28;20905;-63
2024/02/14 10:13:29;;;;;;;4.70;3.33;;;6.80;99.90;;;;;;5093063;28;20409;-64
2024/02/14 10:15:55;;;;;;;3.13;2.63;;;7.00;99.90;;;;;;5087438;28;20939;-63
2024/02/14 10:18:22;;;;;;;4.90;3.43;;;7.00;99.90;;;;;;5092924;28;20933;-64
2024/02/14 10:20:57;;;;;;;3.33;3.03;;;7.00;99.90;;;;;;5093011;28;20439;-64
2024/02/14 10:23:23;;;;;;;3.73;3.37;;;7.10;99.90;;;;;;5092770;28;20417;-63
2024/02/14 10:25:50;;;;;;;2.90;2.43;;;7.30;99.90;;;;;;5088522;28;20435;-64
2024/02/14 10:28:16;;;;;;;3.43;3.13;;;7.20;99.90;;;;;;5085136;28;20195;-64
2024/02/14 10:30:45;;;;;;;3.30;2.93;;;7.20;99.90;;;;;;5091372;28;20825;-64
2024/02/14 10:33:11;;;;;;;5.30;3.57;;;7.20;99.90;;;;;;5089453;28;20428;-62
2024/02/14 10:35:41;;;;;;;6.30;3.27;;;7.20;99.90;;;;;;5092598;28;20810;-63
2024/02/14 10:38:09;;;;;;;3.70;2.90;;;7.10;99.90;;;;;;5084860;28;20182;-64
2024/02/14 10:40:35;;;;;;;6.00;3.13;;;7.10;99.90;;;;;;5089306;28;20435;-64
2024/02/14 10:43:02;;;;;;;3.80;3.40;;;7.30;99.90;;;;;;5078428;28;20503;-63
2024/02/14 10:45:28;;;;;;;5.17;3.07;;;7.40;99.90;;;;;;5093031;28;20936;-62
2024/02/14 10:47:57;;;;;;;6.43;2.93;;;7.40;99.90;;;;;;5092920;28;20512;-61
2024/02/14 10:50:24;;;;;;;3.40;3.10;;;7.30;99.90;;;;;;5092437;28;20200;-60
2024/02/14 10:52:56;;;;;;;4.03;3.00;;;7.30;99.90;;;;;;5092634;28;20409;-61
2024/02/14 10:55:26;;;;;;;2.50;2.30;;;7.30;99.90;;;;;;5092326;28;20409;-61
2024/02/14 10:57:54;;;;;;;10.53;2.80;;;7.40;99.90;;;;;;5088463;28;20433;-62
2024/02/14 11:00:20;;;;;;;5.73;3.60;;;7.40;99.90;;;;;;5089286;28;20415;-61
2024/02/14 11:02:48;;;;;;;7.67;4.03;;;7.60;99.90;;;;;;5088823;28;20413;-61
2024/02/14 11:05:16;;;;;;;10.33;3.13;;;7.70;99.90;;;;;;5092308;28;20927;-62
2024/02/14 11:07:46;;;;;;;5.07;3.10;;;7.70;99.90;;;;;;5092031;28;20407;-63
2024/02/14 11:10:16;;;;;;;5.90;3.30;;;7.90;99.90;;;;;;5091922;28;20945;-62
2024/02/14 11:12:42;;;;;;;5.87;3.30;;;8.00;99.90;;;;;;5087883;28;20422;-63
2024/02/14 11:15:21;;;;;;;3.50;3.20;;;8.10;99.90;;;;;;5082680;28;20424;-63
2024/02/14 11:17:49;;;;;;;2.90;2.70;;;8.20;99.90;;;;;;5084222;28;20503;-62
2024/02/14 11:20:30;;;;;;;4.70;2.73;;;8.20;99.90;;;;;;5091219;28;20436;-62
2024/02/14 11:23:11;;;;;;;3.53;2.87;;;8.00;99.90;;;;;;5091994;28;20935;-62
2024/02/14 11:25:36;;;;;;;4.87;3.67;;;7.90;99.90;;;;;;5089901;28;20434;-61
2024/02/14 11:28:14;;;;;;;7.70;3.00;;;7.80;99.90;;;;;;5088961;28;20438;-61
2024/02/14 11:30:42;;;;;;;5.63;2.87;;;7.70;99.90;;;;;;5083720;28;20459;-61
2024/02/14 11:33:15;;;;;;;4.63;3.10;;;7.80;99.90;;;;;;5083209;28;20414;-62
2024/02/14 11:35:41;;;;;;;5.27;3.17;;;7.90;99.90;;;;;;5083637;28;20408;-61
2024/02/14 11:38:09;;;;;;;3.80;2.93;;;7.80;99.90;;;;;;5091063;28;20484;-61
2024/02/14 11:40:35;;;;;;;4.43;3.37;;;7.70;99.90;;;;;;5091339;28;20427;-62
2024/02/14 11:43:01;;;;;;;3.37;2.73;;;7.80;99.90;;;;;;5091580;28;20749;-61
2024/02/14 11:45:27;;;;;;;4.60;3.83;;;7.70;99.90;;;;;;5085668;28;20425;-61
2024/02/14 11:47:54;;;;;;;4.83;2.83;;;7.80;99.90;;;;;;5088880;28;20417;-63
2024/02/14 11:50:21;;;;;;;4.17;2.90;;;7.80;99.90;;;;;;5089778;28;20486;-62
2024/02/14 11:52:46;;;;;;;6.10;3.27;;;7.80;99.90;;;;;;5086527;28;20408;-62
2024/02/14 11:55:15;;;;;;;4.93;3.90;;;7.80;99.90;;;;;;5087673;28;20418;-62
2024/02/14 11:57:41;;;;;;;6.00;4.30;;;7.90;99.90;;;;;;5099163;28;20300;-62
2024/02/14 12:00:08;;;;;;;8.60;4.10;;;7.90;99.90;;;;;;5091643;28;20414;-62
2024/02/14 12:02:34;;;;;;;3.03;2.70;;;8.00;99.90;;;;;;5082202;28;20807;-62
2024/02/14 12:05:00;;;;;;;3.10;2.77;;;7.90;99.90;;;;;;5091435;28;20487;-62
2024/02/14 12:07:26;;;;;;;4.17;3.57;;;7.90;99.90;;;;;;5089394;28;20419;-62
2024/02/14 12:09:51;;;;;;;3.03;2.70;;;8.00;99.90;;;;;;5084460;28;20449;-61
2024/02/14 12:12:17;;;;;;;3.83;3.33;;;8.00;99.90;;;;;;5091062;28;20445;-62
2024/02/14 12:14:49;;;;;;;3.77;3.47;;;8.00;99.90;;;;;;5090824;28;20171;-63
2024/02/14 12:17:18;;;;;;;9.20;3.70;;;7.90;99.90;;;;;;5091202;28;20676;-63
2024/02/14 12:19:44;;;;;;;3.47;2.97;;;7.90;99.90;;;;;;5087620;28;20427;-62
2024/02/14 12:22:19;;;;;;;4.80;3.53;;;7.90;99.90;;;;;;5091109;28;20499;-63
2024/02/14 12:24:47;;;;;;;3.67;3.37;;;7.90;99.90;;;;;;5079390;28;20415;-63
2024/02/14 12:27:16;;;;;;;4.97;3.83;;;8.00;99.90;;;;;;5079548;28;20431;-62
2024/02/14 12:29:45;;;;;;;6.00;3.00;;;8.00;99.90;;;;;;5079469;28;20591;-61
2024/02/14 12:32:10;;;;;;;4.57;3.17;;;8.10;99.90;;;;;;5090882;28;20438;-61
2024/02/14 12:34:37;;;;;;;4.23;2.73;;;8.10;99.90;;;;;;5090959;28;20805;-60
2024/02/14 12:37:03;;;;;;;6.30;3.57;;;8.10;99.90;;;;;;5091016;28;20169;-61
2024/02/14 12:39:29;;;;;;;4.13;3.80;;;8.20;99.90;;;;;;5082760;28;20468;-61
2024/02/14 12:41:55;;;;;;;5.50;4.40;;;8.30;99.90;;;;;;5091607;28;20246;-62
2024/02/14 12:44:20;;;;;;;3.80;3.50;;;8.40;99.90;;;;;;5083858;28;20797;-61
2024/02/14 12:46:46;;;;;;;10.30;4.23;;;8.30;99.90;;;;;;5090884;28;20635;-62
2024/02/14 12:49:11;;;;;;;5.93;4.83;;;8.30;99.90;;;;;;5082324;28;20243;-62
2024/02/14 12:51:38;;;;;;;5.73;3.90;;;8.40;99.90;;;;;;5090411;28;20196;-62
2024/02/14 12:54:05;;;;;;;10.37;3.50;;;8.40;99.90;;;;;;5084118;28;20178;-66
2024/02/14 12:56:31;;;;;;;4.57;3.50;;;8.40;99.90;;;;;;5091118;28;20465;-63